Partenaires institutionnels


Sponsors

060/34.00.00
www.octaplus.be
info.mariembourg@octaplus.be
COURSE AUX FLAMBEAUX
19:31:15 109 classés 0,500 km
POS DOS SEXE NOM CLUB TEMPS REEL VIT MOY CAT PL. PTS
1 1246 DARAS PAUL CAP BEAURAING 00:01:13 00:01:13 24,655 02:26 BEN H 1 1000
2 1263 LOHANN WALLERAND 00:01:14 00:01:14 24,323 02:28 BEN H 2 987
3 1272 GAUTHIER DARDENNE CABW PHILIPPEVILLE 00:01:15 00:01:15 23,998 02:30 BEN H 3 973
4 2174 FRANCOIS HUGO CABW 00:01:16 00:01:16 23,682 02:32 BEN H 4 961
5 1225 RIFFLART MAXIME ATHÉNÉE ROYAL JEAN REY PRIM. 00:01:19 00:01:19 22,783 02:38 BEN H 5 924
6 1270 ALEX BLEQUIT JTRR 00:01:19 00:01:19 22,783 02:38 BEN H 6 924
7 2095 F ARMAND MARGOT JACO 00:01:22 00:01:22 21,949 02:44 BEN F 1 890
8 1291 AMORY MASSART AC FRONTIÈRES 00:01:24 00:01:24 21,427 02:48 BEN H 7 869
9 1274 NICOLAS LAMBERT JTRR 00:01:25 00:01:25 21,175 02:50 BEN H 8 859
10 1243 BAIOLET LOUIS ACCO 00:01:25 00:01:25 21,175 02:50 BEN H 9 859
11 2224 DARDENNE NICOLAS 00:01:25 00:01:25 21,175 02:50 BEN H 10 859
12 2272 MOUREAU ANTOINE ESM 00:01:27 00:01:27 20,688 02:54 BEN H 11 839
13 1249 DEMENIL THOMAS 00:01:28 00:01:28 20,453 02:56 BEN H 12 830
14 1292 BRIEUC PESTIAUX PEACH TEAM 00:01:29 00:01:29 20,223 02:58 BEN H 13 820
15 1247 ZEH EYTTE CAMRON 00:01:29 00:01:29 20,223 02:58 BEN H 14 820
16 2370 CHATELAIN THOMAS 00:01:29 00:01:29 20,223 02:58 BEN H 15 820
17 1268 F ANNA DE PESTEL JACO 00:01:30 00:01:30 19,999 03:00 BEN F 2 811
18 1241 MARCHAL ROBIN 00:01:30 00:01:30 19,999 03:00 BEN H 16 811
19 1252 F DEBAIY MELINA 00:01:31 00:01:31 19,779 03:02 BEN F 3 802
20 1202 F LAURÉNA CHOËL ATHÉNÉE ROYAL JEAN REY PRIM. 00:01:32 00:01:32 19,564 03:04 BEN F 4 794
21 1209 HUGO DUBUC ATHÉNÉE ROYAL JEAN REY PRIM. 00:01:33 00:01:33 19,354 03:06 BEN H 17 785
22 2028 F DROMELET CLEMENCE ATHÉNÉE ROYAL JEAN REY PRIM. 00:01:33 00:01:33 19,353 03:06 BEN F 5 785
23 1232 F BAIOLET NELL ACCO 00:01:34 00:01:34 19,148 03:08 BEN F 6 777
24 1271 F LAURE BLEQUIT JTRR 00:01:35 00:01:35 18,946 03:10 BEN F 7 768
25 1223 TIMI VLEGELS ATHÉNÉE ROYAL JEAN REY PRIM. 00:01:37 00:01:37 18,556 03:14 BEN H 18 753
26 1240 THUNUS TOMAS 00:01:37 00:01:37 18,555 03:14 BEN H 19 753
27 1234 MEUNIER ADRIEN ACCO 00:01:37 00:01:37 18,555 03:14 BEN H 20 753
28 2344 BESSON THEO JTRR 00:01:37 00:01:37 18,555 03:14 BEN H 21 753
29 1206 EROS DE VREESE ATHÉNÉE ROYAL JEAN REY PRIM. 00:01:38 00:01:38 18,366 03:16 BEN H 22 745
30 2246 THOMAS MATEO 00:01:38 00:01:38 18,366 03:16 BEN H 23 745
31 1203 BRYAN COUTURE ATHÉNÉE ROYAL JEAN REY PRIM. 00:01:39 00:01:39 18,181 03:18 BEN H 24 737
32 1248 F DEMENIL VICTORIA 00:01:39 00:01:39 18,181 03:18 BEN F 8 737
33 1251 F COLLIN EUGÉNIE 00:01:39 00:01:39 18,181 03:18 BEN F 9 737
34 1226 RIFFLART NOA ATHÉNÉE ROYAL JEAN REY PRIM. 00:01:40 00:01:40 17,999 03:20 BEN H 25 730
35 1242 F DEWEVER IRIS ACCO 00:01:41 00:01:41 17,821 03:22 BEN F 10 723
36 2262 BAILEN TAO RCABW 00:01:41 00:01:41 17,820 03:22 BEN H 26 723
37 1217 F ZOÉ LAMBERT ATHÉNÉE ROYAL JEAN REY PRIM. 00:01:42 00:01:42 17,646 03:24 BEN F 11 716
38 1275 SACHA MARECHALLE JTRR 00:01:42 00:01:42 17,646 03:24 BEN H 27 716
39 1284 F EMA DEVOS 00:01:42 00:01:42 17,646 03:24 BEN F 12 716
40 1221 SIMON NOËL ATHÉNÉE ROYAL JEAN REY PRIM. 00:01:43 00:01:43 17,475 03:26 BEN H 28 709
41 2327 RAIWET WYATT JACO 00:01:43 00:01:43 17,474 03:26 BEN H 29 709
42 1213 TAHA EL AKLI ATHÉNÉE ROYAL JEAN REY PRIM. 00:01:45 00:01:45 17,142 03:30 BEN H 30 695
43 1287 F ELINE WULLAERT 00:01:45 00:01:45 17,142 03:30 BEN F 13 695
44 1201 F DALILA BELDI ATHÉNÉE ROYAL JEAN REY PRIM. 00:01:46 00:01:46 16,980 03:32 BEN F 14 689
45 1283 NATHAN RIFFLART 00:01:46 00:01:46 16,980 03:32 BEN H 31 689
46 1289 F LOUISE LECLERCQ AC FRONTIÈRES 00:01:46 00:01:46 16,980 03:32 BEN F 15 689
47 1245 F MORTIER NOA SHARKS/LA THURE 00:01:46 00:01:46 16,980 03:32 BEN F 16 689
48 1214 F LOU GEENS ATHÉNÉE ROYAL JEAN REY PRIM. 00:01:47 00:01:47 16,822 03:34 BEN F 17 682
49 2183 DELAIRE TIAGO 00:01:47 00:01:47 16,821 03:34 BEN H 32 682
50 2230 MOTQUIN NOE OC NISMES 00:01:47 00:01:47 16,821 03:34 BEN H 33 682
51 1200 F ZOHRA ARABAT ATHÉNÉE ROYAL JEAN REY PRIM. 00:01:49 00:01:49 16,513 03:38 BEN F 18 670
52 1208 VINCENZO DELOBBE ATHÉNÉE ROYAL JEAN REY PRIM. 00:01:49 00:01:49 16,513 03:38 BEN H 34 670
53 1266 HUGO PINOT 00:01:49 00:01:49 16,513 03:38 BEN H 35 670
54 1238 F CABARAUX EMY 00:01:49 00:01:49 16,513 03:38 BEN F 19 670
55 2135 F RIVEZ EVA ECOLE SIVRY 00:01:49 00:01:49 16,513 03:38 BEN F 20 670
56 1204 EVAN DALEWIJN ATHÉNÉE ROYAL JEAN REY PRIM. 00:01:50 00:01:50 16,363 03:40 BEN H 36 664
57 1276 MATTHIS MEYAN JTRR 00:01:50 00:01:50 16,363 03:40 BEN H 37 664
58 1279 QUENTIN POUCET JTRR 00:01:50 00:01:50 16,363 03:40 BEN H 38 664
59 1259 PASQUASY EMILE 00:01:51 00:01:51 16,215 03:42 BEN H 39 658
60 2349 F CABARAUX ALIZA JTRR COUVIN 00:01:51 00:01:51 16,215 03:42 BEN F 21 658
61 1231 THIRION GUY ATHÉNÉE ROYAL JEAN REY PRIM. 00:01:56 00:01:56 15,517 03:52 BEN H 40 629
62 1267 F LILY REICHLING JTRR 00:01:57 00:01:57 15,384 03:54 BEN F 22 624
63 2084 F JACQUES JULIA TRAILER DES FAGNES 00:01:57 00:01:57 15,384 03:54 BEN F 23 624
64 2364 F BILOT ELINE ATHÉNÉE ROYAL JEAN REY PRIM. 00:01:57 00:01:57 15,384 03:54 BEN F 24 624
65 2131 F TIENPONT LEA THUILLIES 00:01:57 00:01:57 15,384 03:54 BEN F 25 624
66 1205 NOA DE VREESE ATHÉNÉE ROYAL JEAN REY PRIM. 00:01:59 00:01:59 15,125 03:58 BEN H 41 613
67 1253 F GILLAIN LUCIE 00:01:59 00:01:59 15,125 03:58 BEN F 26 613
68 1239 BLEQUIT DYLAN JTRR 00:02:00 00:02:00 14,999 04:00 BEN H 42 608
69 1280 VALENTIN POUCET 00:02:01 00:02:01 14,875 04:02 BEN H 43 603
70 1290 ADELIN LEJEUNE JACO 00:02:01 00:02:01 14,875 04:02 BEN H 44 603
71 2234 F RIVEZ NAIS ECOLE SIVRY 00:02:01 00:02:01 14,875 04:02 BEN F 27 603
72 2091 F SALENDRES ZOE JTRR 00:02:01 00:02:01 14,875 04:02 BEN F 28 603
73 1250 AZZARA TIMOTHY ATHÉNÉE ROYAL 00:02:02 00:02:02 14,753 04:04 BEN H 45 598
74 1220 F JULIETTE MAQUART ATHÉNÉE ROYAL JEAN REY PRIM. 00:02:03 00:02:03 14,634 04:06 BEN F 29 594
75 1228 THOMAS ANTOINE ATHÉNÉE ROYAL JEAN REY PRIM. 00:02:03 00:02:03 14,634 04:06 BEN H 46 594
76 1237 F LIBOIS JEANNE WEPION 00:02:03 00:02:03 14,633 04:06 BEN F 30 594
77 1230 F THIRION MICHELLE ATHÉNÉE ROYAL JEAN REY PRIM. 00:02:06 00:02:06 14,285 04:12 BEN F 31 579
78 1255 F LOBET MARION JACO 00:02:06 00:02:06 14,285 04:12 BEN F 32 579
79 1210 ALEXIS DUBUC ATHÉNÉE ROYAL JEAN REY PRIM. 00:02:09 00:02:09 13,953 04:18 BEN H 47 566
80 1236 LIBOIS ANTOINE 00:02:09 00:02:09 13,953 04:18 BEN H 48 566
81 2375 LECLERCQ LEON TRAILER DES FAGNES 00:02:09 00:02:09 13,953 04:18 BEN H 49 566
82 1224 F LAUREEN WULLAERT ATHÉNÉE ROYAL JEAN REY PRIM. 00:02:10 00:02:10 13,846 04:20 BEN F 33 562
83 1277 F EVA NICOLAS JACO 00:02:10 00:02:10 13,846 04:20 BEN F 34 562
84 1285 F INES BAULOYE BRULY 00:02:14 00:02:14 13,432 04:28 BEN F 35 545
85 2061 DESJARDIN ANTONIN JACO 00:02:16 00:02:16 13,234 04:32 BEN H 50 537
86 1278 ADAM POUCET JTRR 00:02:17 00:02:17 13,138 04:34 BEN H 51 533
87 1229 F THIRION KELLYA ATHÉNÉE ROYAL JEAN REY PRIM. 00:02:19 00:02:19 12,949 04:38 BEN F 36 525
88 1219 F NOËLLINE LUCAS ATHÉNÉE ROYAL JEAN REY PRIM. 00:02:20 00:02:20 12,857 04:40 BEN F 37 521
89 2221 F DUBUC JULIA JTRR 00:02:21 00:02:21 12,765 04:42 BEN F 38 518
90 1235 F HANCE LENA 00:02:22 00:02:22 12,675 04:44 BEN F 39 514
91 2001 F MOTQUIN ALICE BASKET CERFONTAINE 00:02:22 00:02:22 12,675 04:44 BEN F 40 514
92 1244 F BAIOLET ZOE 00:02:23 00:02:23 12,587 04:46 BEN F 41 511
93 1233 BAIOLET NINON ACCO 00:02:23 00:02:23 12,587 04:46 BEN H 52 511
94 1257 BOON BAPTISTE 00:02:26 00:02:26 12,328 04:52 BEN H 53 500
95 1211 F NHYLIA DUTRANOIT ATHÉNÉE ROYAL JEAN REY PRIM. 00:02:28 00:02:28 12,162 04:56 BEN F 42 493
96 1300 COLYN BOTTEAUX 00:02:28 00:02:28 12,162 04:56 BEN H 54 493
97 1218 F FERIEL LAROUSSI ATHÉNÉE ROYAL JEAN REY PRIM. 00:02:35 00:02:35 11,613 05:10 BEN F 43 471
98 2008 VERMORTEL JEREMIE 00:02:37 00:02:37 11,464 05:14 BEN H 55 465
99 1258 F BOUSSIFET LYZZI 00:02:38 00:02:38 11,392 05:16 BEN F 44 462
100 1212 F LÉNA DUTRANOIT ATHÉNÉE ROYAL JEAN REY PRIM. 00:02:41 00:02:41 11,180 05:22 BEN F 45 453
101 1207 ALESSANDRO DELOBBE ATHÉNÉE ROYAL JEAN REY PRIM. 00:02:47 00:02:47 10,778 05:34 BEN H 56 437
102 2392 F PARQUARY ANNA ACCO 00:02:47 00:02:47 10,778 05:34 BEN F 46 437
103 1222 F CHLOÉ PARISI ATHÉNÉE ROYAL JEAN REY PRIM. 00:02:49 00:02:49 10,651 05:38 BEN F 47 432
104 1269 F LOU-ANN BINON 00:03:06 00:03:06 9,677 06:12 BEN F 48 392
105 2232 JACQUEMART LUCAS 00:03:14 00:03:14 9,278 06:28 BEN H 57 376
106 1254 F DELMOTTE EMMA 00:04:01 00:04:01 7,469 08:02 BEN F 49 303
107 2138 F VAN LOO MARINE 00:14:31 00:14:31 2,067 29:02 BEN F 50 84
108 2206 VAN LOO MALIEH 00:14:31 00:14:31 2,067 29:02 BEN H 58 84
109 1227 AL-SHUMARRI ALI ATHÉNÉE ROYAL JEAN REY PRIM. 00:15:00 00:15:00 2,000 30:00 BEN H 59 81